sensor_id;sensor_type;location;lat;lon;timestamp;temperature;humidity
18658;DHT22;9458;50.942;5.074;2023-02-28T00:01:33;3.30;99.90
18658;DHT22;9458;50.942;5.074;2023-02-28T00:04:01;3.30;99.90
18658;DHT22;9458;50.942;5.074;2023-02-28T00:06:31;3.30;99.90
18658;DHT22;9458;50.942;5.074;2023-02-28T00:09:01;3.30;99.90
18658;DHT22;9458;50.942;5.074;2023-02-28T00:11:30;3.30;99.90
18658;DHT22;9458;50.942;5.074;2023-02-28T00:13:58;3.30;99.90
18658;DHT22;9458;50.942;5.074;2023-02-28T00:16:26;3.30;99.90
18658;DHT22;9458;50.942;5.074;2023-02-28T00:18:54;3.20;99.90
18658;DHT22;9458;50.942;5.074;2023-02-28T00:21:22;3.20;99.90
18658;DHT22;9458;50.942;5.074;2023-02-28T00:23:51;3.20;99.90
18658;DHT22;9458;50.942;5.074;2023-02-28T00:26:19;3.10;99.90
18658;DHT22;9458;50.942;5.074;2023-02-28T00:28:47;3.00;99.90
18658;DHT22;9458;50.942;5.074;2023-02-28T00:31:15;3.00;99.90
18658;DHT22;9458;50.942;5.074;2023-02-28T00:33:43;3.00;99.90
18658;DHT22;9458;50.942;5.074;2023-02-28T00:36:11;3.10;99.90
18658;DHT22;9458;50.942;5.074;2023-02-28T00:38:40;3.10;99.90
18658;DHT22;9458;50.942;5.074;2023-02-28T00:41:10;3.00;99.90
18658;DHT22;9458;50.942;5.074;2023-02-28T00:43:39;3.00;99.90
18658;DHT22;9458;50.942;5.074;2023-02-28T00:46:06;3.00;99.90
18658;DHT22;9458;50.942;5.074;2023-02-28T00:48:33;2.90;99.90
18658;DHT22;9458;50.942;5.074;2023-02-28T00:51:01;2.90;99.90
18658;DHT22;9458;50.942;5.074;2023-02-28T00:53:30;2.90;99.90
18658;DHT22;9458;50.942;5.074;2023-02-28T00:55:59;2.90;99.90
18658;DHT22;9458;50.942;5.074;2023-02-28T00:58:28;2.90;99.90
18658;DHT22;9458;50.942;5.074;2023-02-28T01:00:57;2.90;99.90
18658;DHT22;9458;50.942;5.074;2023-02-28T01:03:34;2.90;99.90
18658;DHT22;9458;50.942;5.074;2023-02-28T01:06:05;2.90;99.90
18658;DHT22;9458;50.942;5.074;2023-02-28T01:08:35;2.80;99.90
18658;DHT22;9458;50.942;5.074;2023-02-28T01:11:10;2.80;99.90
18658;DHT22;9458;50.942;5.074;2023-02-28T01:13:46;2.80;99.90
18658;DHT22;9458;50.942;5.074;2023-02-28T01:16:13;2.80;99.90
18658;DHT22;9458;50.942;5.074;2023-02-28T01:18:42;2.70;99.90
18658;DHT22;9458;50.942;5.074;2023-02-28T01:21:11;2.70;99.90
18658;DHT22;9458;50.942;5.074;2023-02-28T01:23:41;2.70;99.90
18658;DHT22;9458;50.942;5.074;2023-02-28T01:26:13;2.70;99.90
18658;DHT22;9458;50.942;5.074;2023-02-28T01:28:48;2.70;99.90
18658;DHT22;9458;50.942;5.074;2023-02-28T01:31:16;2.60;99.90
18658;DHT22;9458;50.942;5.074;2023-02-28T01:33:49;2.60;99.90
18658;DHT22;9458;50.942;5.074;2023-02-28T01:36:21;2.60;99.90
18658;DHT22;9458;50.942;5.074;2023-02-28T01:38:51;2.70;99.90
18658;DHT22;9458;50.942;5.074;2023-02-28T01:41:24;2.60;99.90
18658;DHT22;9458;50.942;5.074;2023-02-28T01:44:05;2.50;99.90
18658;DHT22;9458;50.942;5.074;2023-02-28T01:46:35;2.50;99.90
18658;DHT22;9458;50.942;5.074;2023-02-28T01:49:09;2.50;99.90
18658;DHT22;9458;50.942;5.074;2023-02-28T01:51:41;2.50;99.90
18658;DHT22;9458;50.942;5.074;2023-02-28T01:54:16;2.50;99.90
18658;DHT22;9458;50.942;5.074;2023-02-28T01:56:53;2.50;99.90
18658;DHT22;9458;50.942;5.074;2023-02-28T01:59:29;2.50;99.90
18658;DHT22;9458;50.942;5.074;2023-02-28T02:01:59;2.50;99.90
18658;DHT22;9458;50.942;5.074;2023-02-28T02:04:32;2.50;99.90
18658;DHT22;9458;50.942;5.074;2023-02-28T02:07:05;2.40;99.90
18658;DHT22;9458;50.942;5.074;2023-02-28T02:09:32;2.40;99.90
18658;DHT22;9458;50.942;5.074;2023-02-28T02:12:06;2.50;99.90
18658;DHT22;9458;50.942;5.074;2023-02-28T02:14:51;2.40;99.90
18658;DHT22;9458;50.942;5.074;2023-02-28T02:17:31;2.40;99.90
18658;DHT22;9458;50.942;5.074;2023-02-28T02:29:36;2.30;99.90
18658;DHT22;9458;50.942;5.074;2023-02-28T02:32:45;2.30;99.90
18658;DHT22;9458;50.942;5.074;2023-02-28T02:35:22;2.30;99.90
18658;DHT22;9458;50.942;5.074;2023-02-28T02:38:03;2.30;99.90
18658;DHT22;9458;50.942;5.074;2023-02-28T02:40:35;2.20;99.90
18658;DHT22;9458;50.942;5.074;2023-02-28T02:43:09;2.20;99.90
18658;DHT22;9458;50.942;5.074;2023-02-28T02:45:41;2.20;99.90
18658;DHT22;9458;50.942;5.074;2023-02-28T02:48:13;2.20;99.90
18658;DHT22;9458;50.942;5.074;2023-02-28T02:50:46;2.20;99.90
18658;DHT22;9458;50.942;5.074;2023-02-28T02:53:17;2.20;99.90
18658;DHT22;9458;50.942;5.074;2023-02-28T02:55:48;2.10;99.90
18658;DHT22;9458;50.942;5.074;2023-02-28T02:58:24;2.10;99.90
18658;DHT22;9458;50.942;5.074;2023-02-28T03:00:54;2.10;99.90
18658;DHT22;9458;50.942;5.074;2023-02-28T03:03:33;2.10;99.90
18658;DHT22;9458;50.942;5.074;2023-02-28T03:06:04;2.10;99.90
18658;DHT22;9458;50.942;5.074;2023-02-28T03:08:35;2.10;99.90
18658;DHT22;9458;50.942;5.074;2023-02-28T03:11:05;2.10;99.90
18658;DHT22;9458;50.942;5.074;2023-02-28T03:13:54;2.10;99.90
18658;DHT22;9458;50.942;5.074;2023-02-28T03:16:31;2.10;99.90
18658;DHT22;9458;50.942;5.074;2023-02-28T03:19:11;2.10;99.90
18658;DHT22;9458;50.942;5.074;2023-02-28T03:21:58;2.10;99.90
18658;DHT22;9458;50.942;5.074;2023-02-28T03:24:33;2.00;99.90
18658;DHT22;9458;50.942;5.074;2023-02-28T03:27:07;2.00;99.90
18658;DHT22;9458;50.942;5.074;2023-02-28T03:29:39;2.00;99.90
18658;DHT22;9458;50.942;5.074;2023-02-28T03:32:14;2.00;99.90
18658;DHT22;9458;50.942;5.074;2023-02-28T03:34:50;2.00;99.90
18658;DHT22;9458;50.942;5.074;2023-02-28T03:37:25;2.00;99.90
18658;DHT22;9458;50.942;5.074;2023-02-28T03:39:58;2.00;99.90
18658;DHT22;9458;50.942;5.074;2023-02-28T03:42:29;2.00;99.90
18658;DHT22;9458;50.942;5.074;2023-02-28T03:45:01;2.10;99.90
18658;DHT22;9458;50.942;5.074;2023-02-28T03:47:37;2.00;99.90
18658;DHT22;9458;50.942;5.074;2023-02-28T03:50:10;2.10;99.90
18658;DHT22;9458;50.942;5.074;2023-02-28T03:52:47;2.10;99.90
18658;DHT22;9458;50.942;5.074;2023-02-28T03:55:18;2.10;99.90
18658;DHT22;9458;50.942;5.074;2023-02-28T03:57:53;2.10;99.90
18658;DHT22;9458;50.942;5.074;2023-02-28T04:00:28;2.10;99.90
18658;DHT22;9458;50.942;5.074;2023-02-28T04:03:00;2.10;99.90
18658;DHT22;9458;50.942;5.074;2023-02-28T04:05:29;2.10;99.90
18658;DHT22;9458;50.942;5.074;2023-02-28T04:08:05;2.10;99.90
18658;DHT22;9458;50.942;5.074;2023-02-28T04:10:34;2.10;99.90
18658;DHT22;9458;50.942;5.074;2023-02-28T04:13:02;2.10;99.90
18658;DHT22;9458;50.942;5.074;2023-02-28T04:15:30;2.10;99.90
18658;DHT22;9458;50.942;5.074;2023-02-28T04:17:59;2.10;99.90
18658;DHT22;9458;50.942;5.074;2023-02-28T04:20:26;2.10;99.90
18658;DHT22;9458;50.942;5.074;2023-02-28T04:22:54;2.10;99.90
18658;DHT22;9458;50.942;5.074;2023-02-28T04:25:23;2.10;99.90
18658;DHT22;9458;50.942;5.074;2023-02-28T04:27:50;2.10;99.90
18658;DHT22;9458;50.942;5.074;2023-02-28T04:30:19;2.10;99.90
18658;DHT22;9458;50.942;5.074;2023-02-28T04:32:47;2.10;99.90
18658;DHT22;9458;50.942;5.074;2023-02-28T04:35:14;2.00;99.90
18658;DHT22;9458;50.942;5.074;2023-02-28T04:37:42;2.10;99.90
18658;DHT22;9458;50.942;5.074;2023-02-28T04:40:11;2.10;99.90
18658;DHT22;9458;50.942;5.074;2023-02-28T04:42:41;2.10;99.90
18658;DHT22;9458;50.942;5.074;2023-02-28T04:45:09;2.10;99.90
18658;DHT22;9458;50.942;5.074;2023-02-28T04:47:37;2.00;99.90
18658;DHT22;9458;50.942;5.074;2023-02-28T04:50:05;2.00;99.90
18658;DHT22;9458;50.942;5.074;2023-02-28T04:52:33;2.00;99.90
18658;DHT22;9458;50.942;5.074;2023-02-28T04:55:00;2.00;99.90
18658;DHT22;9458;50.942;5.074;2023-02-28T04:57:28;1.90;99.90
18658;DHT22;9458;50.942;5.074;2023-02-28T04:59:57;1.90;99.90
18658;DHT22;9458;50.942;5.074;2023-02-28T05:02:25;1.90;99.90
18658;DHT22;9458;50.942;5.074;2023-02-28T05:04:53;1.90;99.90
18658;DHT22;9458;50.942;5.074;2023-02-28T05:07:20;1.90;99.90
18658;DHT22;9458;50.942;5.074;2023-02-28T05:09:48;1.90;99.90
18658;DHT22;9458;50.942;5.074;2023-02-28T05:12:16;1.90;99.90
18658;DHT22;9458;50.942;5.074;2023-02-28T05:14:44;1.90;99.90
18658;DHT22;9458;50.942;5.074;2023-02-28T05:17:14;1.80;99.90
18658;DHT22;9458;50.942;5.074;2023-02-28T05:19:41;1.80;99.90
18658;DHT22;9458;50.942;5.074;2023-02-28T05:22:13;1.80;99.90
18658;DHT22;9458;50.942;5.074;2023-02-28T05:24:42;1.80;99.90
18658;DHT22;9458;50.942;5.074;2023-02-28T05:27:11;1.80;99.90
18658;DHT22;9458;50.942;5.074;2023-02-28T05:29:39;1.80;99.90
18658;DHT22;9458;50.942;5.074;2023-02-28T05:32:10;1.80;99.90
18658;DHT22;9458;50.942;5.074;2023-02-28T05:34:41;1.80;99.90
18658;DHT22;9458;50.942;5.074;2023-02-28T05:37:11;1.80;99.90
18658;DHT22;9458;50.942;5.074;2023-02-28T05:39:40;1.80;99.90
18658;DHT22;9458;50.942;5.074;2023-02-28T05:42:08;1.80;99.90
18658;DHT22;9458;50.942;5.074;2023-02-28T05:44:36;1.80;99.90
18658;DHT22;9458;50.942;5.074;2023-02-28T05:47:05;1.80;99.90
18658;DHT22;9458;50.942;5.074;2023-02-28T05:49:34;1.80;99.90
18658;DHT22;9458;50.942;5.074;2023-02-28T05:52:04;1.80;99.90
18658;DHT22;9458;50.942;5.074;2023-02-28T05:54:32;1.70;99.90
18658;DHT22;9458;50.942;5.074;2023-02-28T05:57:00;1.70;99.90
18658;DHT22;9458;50.942;5.074;2023-02-28T05:59:28;1.70;99.90
18658;DHT22;9458;50.942;5.074;2023-02-28T06:01:56;1.70;99.90
18658;DHT22;9458;50.942;5.074;2023-02-28T06:04:23;1.70;99.90
18658;DHT22;9458;50.942;5.074;2023-02-28T06:06:51;1.70;99.90
18658;DHT22;9458;50.942;5.074;2023-02-28T06:09:20;1.70;99.90
18658;DHT22;9458;50.942;5.074;2023-02-28T06:11:48;1.60;99.90
18658;DHT22;9458;50.942;5.074;2023-02-28T06:14:17;1.70;99.90
18658;DHT22;9458;50.942;5.074;2023-02-28T06:16:46;1.60;99.90
18658;DHT22;9458;50.942;5.074;2023-02-28T06:19:15;1.60;99.90
18658;DHT22;9458;50.942;5.074;2023-02-28T06:21:43;1.60;99.90
18658;DHT22;9458;50.942;5.074;2023-02-28T06:24:11;1.60;99.90
18658;DHT22;9458;50.942;5.074;2023-02-28T06:26:40;1.70;99.90
18658;DHT22;9458;50.942;5.074;2023-02-28T06:29:07;1.60;99.90
18658;DHT22;9458;50.942;5.074;2023-02-28T06:31:36;1.70;99.90
18658;DHT22;9458;50.942;5.074;2023-02-28T06:34:04;1.60;99.90
18658;DHT22;9458;50.942;5.074;2023-02-28T06:36:33;1.60;99.90
18658;DHT22;9458;50.942;5.074;2023-02-28T06:39:02;1.60;99.90
18658;DHT22;9458;50.942;5.074;2023-02-28T06:41:30;1.70;99.90
18658;DHT22;9458;50.942;5.074;2023-02-28T06:43:59;1.70;99.90
18658;DHT22;9458;50.942;5.074;2023-02-28T06:46:27;1.70;99.90
18658;DHT22;9458;50.942;5.074;2023-02-28T06:48:56;1.70;99.90
18658;DHT22;9458;50.942;5.074;2023-02-28T06:51:24;1.80;99.90
18658;DHT22;9458;50.942;5.074;2023-02-28T06:53:53;1.90;99.90
18658;DHT22;9458;50.942;5.074;2023-02-28T06:56:21;2.00;99.90
18658;DHT22;9458;50.942;5.074;2023-02-28T06:58:49;2.10;99.90
18658;DHT22;9458;50.942;5.074;2023-02-28T07:01:20;2.20;99.90
18658;DHT22;9458;50.942;5.074;2023-02-28T07:03:59;2.40;99.90
18658;DHT22;9458;50.942;5.074;2023-02-28T07:06:29;2.90;99.90
18658;DHT22;9458;50.942;5.074;2023-02-28T07:08:58;3.70;99.90
18658;DHT22;9458;50.942;5.074;2023-02-28T07:11:27;4.70;99.90
18658;DHT22;9458;50.942;5.074;2023-02-28T07:13:56;5.40;99.90
18658;DHT22;9458;50.942;5.074;2023-02-28T07:16:26;5.80;99.90
18658;DHT22;9458;50.942;5.074;2023-02-28T07:18:55;5.90;99.90
18658;DHT22;9458;50.942;5.074;2023-02-28T07:21:23;6.20;99.90
18658;DHT22;9458;50.942;5.074;2023-02-28T07:23:52;6.40;99.90
18658;DHT22;9458;50.942;5.074;2023-02-28T07:26:20;6.70;99.90
18658;DHT22;9458;50.942;5.074;2023-02-28T07:28:48;6.80;99.90
18658;DHT22;9458;50.942;5.074;2023-02-28T07:31:16;7.00;99.90
18658;DHT22;9458;50.942;5.074;2023-02-28T07:33:45;7.40;99.90
18658;DHT22;9458;50.942;5.074;2023-02-28T07:36:15;7.50;99.90
18658;DHT22;9458;50.942;5.074;2023-02-28T07:38:45;7.70;99.90
18658;DHT22;9458;50.942;5.074;2023-02-28T07:41:21;8.20;99.90
18658;DHT22;9458;50.942;5.074;2023-02-28T07:43:53;8.40;99.90
18658;DHT22;9458;50.942;5.074;2023-02-28T07:46:21;8.60;99.90
18658;DHT22;9458;50.942;5.074;2023-02-28T07:48:49;8.80;99.90
18658;DHT22;9458;50.942;5.074;2023-02-28T07:51:17;9.10;99.90
18658;DHT22;9458;50.942;5.074;2023-02-28T07:53:49;9.40;99.90
18658;DHT22;9458;50.942;5.074;2023-02-28T07:56:17;9.90;99.90
18658;DHT22;9458;50.942;5.074;2023-02-28T07:58:45;10.30;99.90
18658;DHT22;9458;50.942;5.074;2023-02-28T08:01:14;10.40;99.90
18658;DHT22;9458;50.942;5.074;2023-02-28T08:03:44;10.20;99.90
18658;DHT22;9458;50.942;5.074;2023-02-28T08:06:18;10.20;99.90
18658;DHT22;9458;50.942;5.074;2023-02-28T08:08:46;10.50;99.90
18658;DHT22;9458;50.942;5.074;2023-02-28T08:11:15;10.20;99.90
18658;DHT22;9458;50.942;5.074;2023-02-28T08:13:43;10.10;99.90
18658;DHT22;9458;50.942;5.074;2023-02-28T08:16:12;10.20;99.90
18658;DHT22;9458;50.942;5.074;2023-02-28T08:18:41;10.30;99.80
18658;DHT22;9458;50.942;5.074;2023-02-28T08:21:09;10.70;99.40
18658;DHT22;9458;50.942;5.074;2023-02-28T08:23:38;11.00;98.60
18658;DHT22;9458;50.942;5.074;2023-02-28T08:26:07;11.80;99.40
18658;DHT22;9458;50.942;5.074;2023-02-28T08:28:34;12.40;98.60
18658;DHT22;9458;50.942;5.074;2023-02-28T08:31:07;12.70;98.10
18658;DHT22;9458;50.942;5.074;2023-02-28T08:33:35;13.20;97.80
18658;DHT22;9458;50.942;5.074;2023-02-28T08:36:06;13.30;96.70
18658;DHT22;9458;50.942;5.074;2023-02-28T08:38:34;13.60;97.00
18658;DHT22;9458;50.942;5.074;2023-02-28T08:41:06;13.90;95.70
18658;DHT22;9458;50.942;5.074;2023-02-28T08:43:35;13.70;95.10
18658;DHT22;9458;50.942;5.074;2023-02-28T08:46:03;14.00;94.80
18658;DHT22;9458;50.942;5.074;2023-02-28T08:48:35;14.30;94.40
18658;DHT22;9458;50.942;5.074;2023-02-28T08:51:05;14.20;94.50
18658;DHT22;9458;50.942;5.074;2023-02-28T08:53:35;14.70;93.50
18658;DHT22;9458;50.942;5.074;2023-02-28T08:56:07;14.90;93.40
18658;DHT22;9458;50.942;5.074;2023-02-28T08:58:36;15.10;92.60
18658;DHT22;9458;50.942;5.074;2023-02-28T09:01:08;15.40;91.70
18658;DHT22;9458;50.942;5.074;2023-02-28T09:03:36;15.50;91.30
18658;DHT22;9458;50.942;5.074;2023-02-28T09:06:04;14.80;90.40
18658;DHT22;9458;50.942;5.074;2023-02-28T09:08:32;15.30;91.50
18658;DHT22;9458;50.942;5.074;2023-02-28T09:11:01;15.90;90.50
18658;DHT22;9458;50.942;5.074;2023-02-28T09:13:31;16.40;90.90
18658;DHT22;9458;50.942;5.074;2023-02-28T09:16:00;16.90;90.10
18658;DHT22;9458;50.942;5.074;2023-02-28T09:18:28;16.80;86.30
18658;DHT22;9458;50.942;5.074;2023-02-28T09:20:56;17.10;86.90
18658;DHT22;9458;50.942;5.074;2023-02-28T09:23:26;17.10;84.70
18658;DHT22;9458;50.942;5.074;2023-02-28T09:25:54;17.00;83.20
18658;DHT22;9458;50.942;5.074;2023-02-28T09:28:22;17.10;85.60
18658;DHT22;9458;50.942;5.074;2023-02-28T09:30:53;17.20;81.30
18658;DHT22;9458;50.942;5.074;2023-02-28T09:33:21;17.00;81.30
18658;DHT22;9458;50.942;5.074;2023-02-28T09:35:50;17.30;81.00
18658;DHT22;9458;50.942;5.074;2023-02-28T09:38:18;17.20;80.50
18658;DHT22;9458;50.942;5.074;2023-02-28T09:40:49;17.40;80.90
18658;DHT22;9458;50.942;5.074;2023-02-28T09:43:22;17.40;79.90
18658;DHT22;9458;50.942;5.074;2023-02-28T09:45:59;17.30;75.70
18658;DHT22;9458;50.942;5.074;2023-02-28T09:48:31;17.50;74.60
18658;DHT22;9458;50.942;5.074;2023-02-28T09:51:03;17.60;74.30
18658;DHT22;9458;50.942;5.074;2023-02-28T09:53:34;16.40;74.90
18658;DHT22;9458;50.942;5.074;2023-02-28T09:56:08;14.90;76.00
18658;DHT22;9458;50.942;5.074;2023-02-28T09:58:40;13.80;78.50
18658;DHT22;9458;50.942;5.074;2023-02-28T10:01:19;12.70;77.40
18658;DHT22;9458;50.942;5.074;2023-02-28T10:03:55;11.80;81.20
18658;DHT22;9458;50.942;5.074;2023-02-28T10:06:29;11.30;81.10
18658;DHT22;9458;50.942;5.074;2023-02-28T10:09:02;10.60;82.90
18658;DHT22;9458;50.942;5.074;2023-02-28T10:11:33;10.20;85.30
18658;DHT22;9458;50.942;5.074;2023-02-28T10:14:06;9.80;84.90
18658;DHT22;9458;50.942;5.074;2023-02-28T10:16:43;9.70;86.20
18658;DHT22;9458;50.942;5.074;2023-02-28T10:19:16;9.60;82.40
18658;DHT22;9458;50.942;5.074;2023-02-28T10:21:49;9.40;82.50
18658;DHT22;9458;50.942;5.074;2023-02-28T10:24:28;8.80;80.90
18658;DHT22;9458;50.942;5.074;2023-02-28T10:27:00;9.10;81.30
18658;DHT22;9458;50.942;5.074;2023-02-28T10:29:27;9.30;82.10
18658;DHT22;9458;50.942;5.074;2023-02-28T10:32:01;9.00;84.60
18658;DHT22;9458;50.942;5.074;2023-02-28T10:34:29;8.80;81.90
18658;DHT22;9458;50.942;5.074;2023-02-28T10:36:59;8.80;82.80
18658;DHT22;9458;50.942;5.074;2023-02-28T10:39:37;8.90;80.80
18658;DHT22;9458;50.942;5.074;2023-02-28T10:42:18;9.10;80.90
18658;DHT22;9458;50.942;5.074;2023-02-28T10:44:45;9.00;79.70
18658;DHT22;9458;50.942;5.074;2023-02-28T10:47:17;8.50;80.80
18658;DHT22;9458;50.942;5.074;2023-02-28T10:49:49;8.30;80.30
18658;DHT22;9458;50.942;5.074;2023-02-28T10:52:33;8.30;79.50
18658;DHT22;9458;50.942;5.074;2023-02-28T10:55:21;8.50;80.10
18658;DHT22;9458;50.942;5.074;2023-02-28T10:57:49;8.50;81.50
18658;DHT22;9458;50.942;5.074;2023-02-28T11:00:23;8.40;80.10
18658;DHT22;9458;50.942;5.074;2023-02-28T11:03:30;8.20;80.80
18658;DHT22;9458;50.942;5.074;2023-02-28T11:06:15;8.20;81.10
18658;DHT22;9458;50.942;5.074;2023-02-28T11:08:46;8.40;83.00
18658;DHT22;9458;50.942;5.074;2023-02-28T11:11:17;8.20;84.60
18658;DHT22;9458;50.942;5.074;2023-02-28T11:13:47;8.20;86.70
18658;DHT22;9458;50.942;5.074;2023-02-28T11:16:17;7.80;83.40
18658;DHT22;9458;50.942;5.074;2023-02-28T11:18:50;7.80;83.30
18658;DHT22;9458;50.942;5.074;2023-02-28T11:21:24;7.80;84.40
18658;DHT22;9458;50.942;5.074;2023-02-28T11:24:05;7.70;83.90
18658;DHT22;9458;50.942;5.074;2023-02-28T11:26:40;7.70;83.90
18658;DHT22;9458;50.942;5.074;2023-02-28T11:29:12;7.70;83.50
18658;DHT22;9458;50.942;5.074;2023-02-28T11:31:43;7.60;84.10
18658;DHT22;9458;50.942;5.074;2023-02-28T11:34:27;7.50;84.20
18658;DHT22;9458;50.942;5.074;2023-02-28T11:36:57;7.40;84.80
18658;DHT22;9458;50.942;5.074;2023-02-28T11:39:25;7.40;84.50
18658;DHT22;9458;50.942;5.074;2023-02-28T11:42:08;7.50;84.30
18658;DHT22;9458;50.942;5.074;2023-02-28T11:44:59;7.40;81.70
18658;DHT22;9458;50.942;5.074;2023-02-28T11:47:35;7.30;81.80
18658;DHT22;9458;50.942;5.074;2023-02-28T11:50:26;7.40;81.50
18658;DHT22;9458;50.942;5.074;2023-02-28T11:53:01;7.30;83.30
18658;DHT22;9458;50.942;5.074;2023-02-28T11:55:34;7.10;85.10
18658;DHT22;9458;50.942;5.074;2023-02-28T11:58:17;7.10;83.20
18658;DHT22;9458;50.942;5.074;2023-02-28T12:01:01;7.20;84.10
18658;DHT22;9458;50.942;5.074;2023-02-28T12:03:37;7.20;82.10
18658;DHT22;9458;50.942;5.074;2023-02-28T12:06:18;7.10;82.40
18658;DHT22;9458;50.942;5.074;2023-02-28T12:08:58;7.00;84.10
18658;DHT22;9458;50.942;5.074;2023-02-28T12:11:41;7.00;82.70
18658;DHT22;9458;50.942;5.074;2023-02-28T12:17:22;6.90;85.00
18658;DHT22;9458;50.942;5.074;2023-02-28T12:19:59;7.00;85.10
18658;DHT22;9458;50.942;5.074;2023-02-28T12:22:37;7.00;83.80
18658;DHT22;9458;50.942;5.074;2023-02-28T12:25:22;6.90;84.70
18658;DHT22;9458;50.942;5.074;2023-02-28T12:27:52;6.90;89.50
18658;DHT22;9458;50.942;5.074;2023-02-28T12:30:24;6.80;85.10
18658;DHT22;9458;50.942;5.074;2023-02-28T12:32:55;6.90;86.50
18658;DHT22;9458;50.942;5.074;2023-02-28T12:35:32;6.90;85.60
18658;DHT22;9458;50.942;5.074;2023-02-28T12:38:05;6.70;84.50
18658;DHT22;9458;50.942;5.074;2023-02-28T12:40:44;6.50;84.50
18658;DHT22;9458;50.942;5.074;2023-02-28T12:43:15;6.70;85.10
18658;DHT22;9458;50.942;5.074;2023-02-28T12:45:48;6.50;87.00
18658;DHT22;9458;50.942;5.074;2023-02-28T12:48:24;6.50;84.60
18658;DHT22;9458;50.942;5.074;2023-02-28T12:50:54;6.60;88.60
18658;DHT22;9458;50.942;5.074;2023-02-28T12:53:28;6.60;85.90
18658;DHT22;9458;50.942;5.074;2023-02-28T12:56:08;6.70;84.90
18658;DHT22;9458;50.942;5.074;2023-02-28T12:58:40;6.70;84.70
18658;DHT22;9458;50.942;5.074;2023-02-28T13:01:25;6.60;87.20
18658;DHT22;9458;50.942;5.074;2023-02-28T13:04:38;6.60;86.70
18658;DHT22;9458;50.942;5.074;2023-02-28T13:07:31;6.60;88.70
18658;DHT22;9458;50.942;5.074;2023-02-28T13:10:05;6.50;87.60
18658;DHT22;9458;50.942;5.074;2023-02-28T13:12:47;6.40;86.90
18658;DHT22;9458;50.942;5.074;2023-02-28T13:15:18;6.40;86.00
18658;DHT22;9458;50.942;5.074;2023-02-28T13:17:51;6.50;86.80
18658;DHT22;9458;50.942;5.074;2023-02-28T13:20:22;6.50;83.10
18658;DHT22;9458;50.942;5.074;2023-02-28T13:22:52;6.50;83.60
18658;DHT22;9458;50.942;5.074;2023-02-28T13:25:54;6.50;87.20
18658;DHT22;9458;50.942;5.074;2023-02-28T13:31:27;6.40;88.10
18658;DHT22;9458;50.942;5.074;2023-02-28T13:34:15;6.40;89.80
18658;DHT22;9458;50.942;5.074;2023-02-28T13:36:43;6.40;88.80
18658;DHT22;9458;50.942;5.074;2023-02-28T13:39:45;6.40;90.60
18658;DHT22;9458;50.942;5.074;2023-02-28T13:42:33;6.30;89.10
18658;DHT22;9458;50.942;5.074;2023-02-28T13:45:26;6.30;88.20
18658;DHT22;9458;50.942;5.074;2023-02-28T13:47:59;6.20;87.80
18658;DHT22;9458;50.942;5.074;2023-02-28T13:50:32;6.20;90.20
18658;DHT22;9458;50.942;5.074;2023-02-28T13:56:20;6.20;89.50
18658;DHT22;9458;50.942;5.074;2023-02-28T13:58:56;6.30;89.70
18658;DHT22;9458;50.942;5.074;2023-02-28T14:01:47;6.30;90.60
18658;DHT22;9458;50.942;5.074;2023-02-28T14:04:45;6.30;90.40
18658;DHT22;9458;50.942;5.074;2023-02-28T14:07:20;6.30;90.70
18658;DHT22;9458;50.942;5.074;2023-02-28T14:09:58;6.30;90.20
18658;DHT22;9458;50.942;5.074;2023-02-28T14:12:54;6.20;90.30
18658;DHT22;9458;50.942;5.074;2023-02-28T14:18:25;6.10;90.40
18658;DHT22;9458;50.942;5.074;2023-02-28T14:21:01;6.10;90.00
18658;DHT22;9458;50.942;5.074;2023-02-28T14:27:11;6.20;91.30
18658;DHT22;9458;50.942;5.074;2023-02-28T14:30:14;6.20;90.20
18658;DHT22;9458;50.942;5.074;2023-02-28T14:32:54;6.20;90.70
18658;DHT22;9458;50.942;5.074;2023-02-28T14:35:43;6.20;90.70
18658;DHT22;9458;50.942;5.074;2023-02-28T14:38:18;6.20;90.00
18658;DHT22;9458;50.942;5.074;2023-02-28T14:40:49;6.20;89.60
18658;DHT22;9458;50.942;5.074;2023-02-28T14:43:21;6.20;89.60
18658;DHT22;9458;50.942;5.074;2023-02-28T14:45:54;6.20;90.30
18658;DHT22;9458;50.942;5.074;2023-02-28T14:48:24;6.20;91.50
18658;DHT22;9458;50.942;5.074;2023-02-28T14:50:55;6.10;91.60
18658;DHT22;9458;50.942;5.074;2023-02-28T14:53:27;6.10;91.60
18658;DHT22;9458;50.942;5.074;2023-02-28T14:55:56;6.10;91.00
18658;DHT22;9458;50.942;5.074;2023-02-28T14:58:26;6.10;91.20
18658;DHT22;9458;50.942;5.074;2023-02-28T15:00:58;6.00;91.80
18658;DHT22;9458;50.942;5.074;2023-02-28T15:03:33;6.00;91.40
18658;DHT22;9458;50.942;5.074;2023-02-28T15:06:02;6.00;91.60
18658;DHT22;9458;50.942;5.074;2023-02-28T15:08:41;6.00;90.80
18658;DHT22;9458;50.942;5.074;2023-02-28T15:11:13;6.00;90.80
18658;DHT22;9458;50.942;5.074;2023-02-28T15:13:44;6.00;91.10
18658;DHT22;9458;50.942;5.074;2023-02-28T15:16:17;6.10;90.40
18658;DHT22;9458;50.942;5.074;2023-02-28T15:18:50;6.00;91.90
18658;DHT22;9458;50.942;5.074;2023-02-28T15:21:21;6.00;91.30
18658;DHT22;9458;50.942;5.074;2023-02-28T15:23:52;6.00;92.00
18658;DHT22;9458;50.942;5.074;2023-02-28T15:26:23;6.00;92.10
18658;DHT22;9458;50.942;5.074;2023-02-28T15:28:57;5.90;91.70
18658;DHT22;9458;50.942;5.074;2023-02-28T15:31:29;5.80;91.60
18658;DHT22;9458;50.942;5.074;2023-02-28T15:34:03;5.80;91.80
18658;DHT22;9458;50.942;5.074;2023-02-28T15:36:32;5.90;92.50
18658;DHT22;9458;50.942;5.074;2023-02-28T15:39:16;5.80;91.70
18658;DHT22;9458;50.942;5.074;2023-02-28T15:41:45;5.80;91.90
18658;DHT22;9458;50.942;5.074;2023-02-28T15:44:22;5.80;92.60
18658;DHT22;9458;50.942;5.074;2023-02-28T15:46:59;5.80;92.00
18658;DHT22;9458;50.942;5.074;2023-02-28T15:49:37;5.80;92.30
18658;DHT22;9458;50.942;5.074;2023-02-28T15:52:09;5.80;92.00
18658;DHT22;9458;50.942;5.074;2023-02-28T15:54:39;5.80;91.80
18658;DHT22;9458;50.942;5.074;2023-02-28T15:57:13;5.80;91.20
18658;DHT22;9458;50.942;5.074;2023-02-28T15:59:48;5.80;91.40
18658;DHT22;9458;50.942;5.074;2023-02-28T16:02:18;5.70;91.80
18658;DHT22;9458;50.942;5.074;2023-02-28T16:05:23;5.70;92.00
18658;DHT22;9458;50.942;5.074;2023-02-28T16:07:55;5.70;91.90
18658;DHT22;9458;50.942;5.074;2023-02-28T16:10:24;5.70;92.50
18658;DHT22;9458;50.942;5.074;2023-02-28T16:12:55;5.70;92.00
18658;DHT22;9458;50.942;5.074;2023-02-28T16:15:26;5.70;91.50
18658;DHT22;9458;50.942;5.074;2023-02-28T16:17:56;5.70;91.80
18658;DHT22;9458;50.942;5.074;2023-02-28T16:20:27;5.70;92.30
18658;DHT22;9458;50.942;5.074;2023-02-28T16:22:56;5.70;92.10
18658;DHT22;9458;50.942;5.074;2023-02-28T16:25:34;5.60;92.20
18658;DHT22;9458;50.942;5.074;2023-02-28T16:28:02;5.60;91.60
18658;DHT22;9458;50.942;5.074;2023-02-28T16:30:30;5.60;92.10
18658;DHT22;9458;50.942;5.074;2023-02-28T16:32:59;5.60;92.80
18658;DHT22;9458;50.942;5.074;2023-02-28T16:35:29;5.60;92.20
18658;DHT22;9458;50.942;5.074;2023-02-28T16:37:57;5.50;92.00
18658;DHT22;9458;50.942;5.074;2023-02-28T16:40:26;5.60;92.20
18658;DHT22;9458;50.942;5.074;2023-02-28T16:42:58;5.60;92.40
18658;DHT22;9458;50.942;5.074;2023-02-28T16:45:28;5.50;92.70
18658;DHT22;9458;50.942;5.074;2023-02-28T16:47:56;5.50;92.80
18658;DHT22;9458;50.942;5.074;2023-02-28T16:50:26;5.50;93.10
18658;DHT22;9458;50.942;5.074;2023-02-28T16:52:56;5.50;93.10
18658;DHT22;9458;50.942;5.074;2023-02-28T16:55:25;5.50;93.00
18658;DHT22;9458;50.942;5.074;2023-02-28T16:57:54;5.40;92.90
18658;DHT22;9458;50.942;5.074;2023-02-28T17:00:23;5.40;92.80